createdAt,value
2018-10-09T08:19:36.309Z,33.20
2018-10-09T08:22:06.817Z,37.80
2018-10-09T08:24:37.204Z,36.00
2018-10-09T08:27:07.412Z,23.80
2018-10-09T08:29:37.728Z,36.60
2018-10-09T08:32:08.327Z,36.40
2018-10-09T08:34:39.881Z,31.60
2018-10-09T08:37:10.028Z,37.60
2018-10-09T08:39:40.493Z,37.80
2018-10-09T08:42:10.469Z,37.80
2018-10-09T08:44:40.932Z,37.80
2018-10-09T08:47:11.099Z,41.00
2018-10-09T08:49:41.923Z,39.00
2018-10-09T08:52:12.230Z,37.80
2018-10-09T08:54:42.450Z,39.20
2018-10-09T08:57:12.642Z,35.60
2018-10-09T08:59:42.702Z,34.20
2018-10-09T09:02:12.973Z,45.80
2018-10-09T09:04:43.103Z,34.00
2018-10-09T09:07:13.906Z,41.40
2018-10-09T09:09:44.190Z,42.60
2018-10-09T09:12:14.345Z,37.80
2018-10-09T09:14:44.340Z,39.40
2018-10-09T09:17:14.586Z,38.80
2018-10-09T09:19:44.681Z,40.00
2018-10-09T09:22:14.987Z,39.60
2018-10-09T09:24:45.280Z,39.00
2018-10-09T09:27:15.350Z,34.60
2018-10-09T09:29:45.607Z,41.60
2018-10-09T09:34:32.817Z,36.60
2018-10-09T09:37:05.306Z,40.80
2018-10-09T09:39:37.094Z,41.20
2018-10-09T09:42:09.088Z,41.00
2018-10-09T09:44:41.036Z,33.80
2018-10-09T09:47:12.960Z,37.40
2018-10-09T09:49:44.973Z,43.80
2018-10-09T09:52:16.812Z,38.60
2018-10-09T09:54:48.744Z,40.00
2018-10-09T09:57:20.830Z,40.20
2018-10-09T09:59:53.128Z,38.80
2018-10-09T10:03:08.745Z,40.20
2018-10-09T10:05:40.923Z,45.00
2018-10-09T10:08:13.069Z,38.00
2018-10-09T10:10:44.761Z,38.60
2018-10-09T10:13:16.555Z,38.20
2018-10-09T10:15:48.550Z,39.20
2018-10-09T10:18:20.683Z,37.60
2018-10-09T10:20:52.726Z,42.80
2018-10-09T10:23:24.574Z,48.20
2018-10-09T10:25:56.337Z,38.80
2018-10-09T10:28:28.130Z,35.00
2018-10-09T10:31:00.066Z,32.20
2018-10-09T10:33:31.885Z,46.40
2018-10-09T10:36:04.001Z,37.80
2018-10-09T10:38:37.549Z,37.40
2018-10-09T10:41:09.277Z,38.80
2018-10-09T10:43:42.260Z,39.00
2018-10-09T10:46:14.255Z,37.60
2018-10-09T10:49:22.923Z,34.80
2018-10-09T10:51:54.983Z,35.80
2018-10-09T10:54:26.722Z,41.20
2018-10-09T10:56:58.600Z,40.80
2018-10-09T10:59:30.603Z,38.60
2018-10-09T11:02:02.663Z,34.60
2018-10-09T11:04:34.576Z,42.40
2018-10-09T11:07:06.468Z,39.20
2018-10-09T11:09:38.646Z,42.20
2018-10-09T11:12:10.730Z,41.40
2018-10-09T11:14:42.631Z,43.80
2018-10-09T11:17:14.358Z,38.60
2018-10-09T11:19:46.548Z,39.20
2018-10-09T11:22:18.370Z,39.40
2018-10-09T11:24:50.125Z,41.00
2018-10-09T11:27:21.848Z,38.00
2018-10-09T11:29:53.777Z,41.00
2018-10-09T11:32:25.872Z,41.80
2018-10-09T11:34:57.900Z,39.20
2018-10-09T11:37:29.947Z,42.20
2018-10-09T11:40:02.538Z,40.40
2018-10-09T11:42:34.325Z,48.40
2018-10-09T11:45:06.449Z,48.60
2018-10-09T11:47:38.124Z,42.40
2018-10-09T11:50:10.396Z,46.00
2018-10-09T11:52:42.382Z,54.80
2018-10-09T11:55:14.069Z,49.80
2018-10-09T11:57:46.063Z,53.00
2018-10-09T12:00:17.983Z,66.80
2018-10-09T12:02:49.785Z,68.60
2018-10-09T12:05:21.647Z,64.60
2018-10-09T12:07:53.645Z,65.40
2018-10-09T12:10:25.584Z,70.80
2018-10-09T12:12:57.394Z,68.20
2018-10-09T12:15:29.023Z,78.80
2018-10-09T12:18:00.858Z,94.40
2018-10-09T12:20:33.009Z,78.80
2018-10-09T12:23:04.837Z,89.80
2018-10-09T12:25:36.750Z,83.40
2018-10-09T12:28:08.626Z,79.40
2018-10-09T12:30:40.250Z,81.00
2018-10-09T12:33:12.195Z,85.60
2018-10-09T12:35:44.367Z,69.80
2018-10-09T12:38:16.281Z,68.80
2018-10-09T12:40:50.302Z,63.00
2018-10-09T12:43:22.007Z,64.40
2018-10-09T12:45:54.013Z,62.80
2018-10-09T12:48:26.193Z,71.20
2018-10-09T12:50:58.719Z,64.60
2018-10-09T12:53:30.498Z,62.20
2018-10-09T12:56:02.472Z,60.40
2018-10-09T12:58:35.304Z,62.20
2018-10-09T13:01:07.198Z,58.20
2018-10-09T13:03:38.911Z,55.00
2018-10-09T13:06:10.697Z,51.80
2018-10-09T13:08:42.269Z,62.40
2018-10-09T13:11:14.086Z,67.80
2018-10-09T13:13:46.032Z,65.00
2018-10-09T13:16:18.263Z,67.40
2018-10-09T13:18:49.923Z,75.40
2018-10-09T13:21:22.012Z,71.00
2018-10-09T13:23:53.784Z,68.20
2018-10-09T13:26:25.484Z,67.80
2018-10-09T13:28:57.294Z,68.80
2018-10-09T13:31:29.301Z,70.00
2018-10-09T13:34:00.781Z,67.80
2018-10-09T13:36:32.628Z,68.80
2018-10-09T13:39:06.225Z,72.60
2018-10-09T13:41:38.676Z,71.00
2018-10-09T13:44:10.178Z,73.00
2018-10-09T13:46:42.213Z,77.60
2018-10-09T13:49:14.126Z,76.00
2018-10-09T13:51:46.178Z,78.40
2018-10-09T13:54:17.788Z,79.60
2018-10-09T13:56:54.673Z,80.80
2018-10-09T13:59:26.633Z,81.00
2018-10-09T14:01:58.514Z,82.60
2018-10-09T14:04:30.550Z,78.00
2018-10-09T14:07:02.178Z,76.40
2018-10-09T14:09:33.867Z,79.00
2018-10-09T14:12:05.674Z,79.60
2018-10-09T14:14:37.999Z,80.60
2018-10-09T14:17:10.122Z,79.00
2018-10-09T14:19:42.432Z,81.40
2018-10-09T14:22:17.126Z,81.40
2018-10-09T14:24:50.032Z,76.00
2018-10-09T14:27:23.607Z,78.20
2018-10-09T14:29:55.716Z,78.40
2018-10-09T14:32:28.944Z,83.00
2018-10-09T14:35:01.948Z,80.00
2018-10-09T14:37:34.904Z,79.80
2018-10-09T14:40:07.029Z,83.60
2018-10-09T14:42:43.143Z,86.00
2018-10-09T14:45:29.751Z,80.60
2018-10-09T15:15:02.454Z,82.00
2018-10-09T15:17:34.318Z,81.40
2018-10-09T15:20:06.302Z,79.40
2018-10-09T15:22:37.926Z,82.40
2018-10-09T15:25:12.850Z,84.40
2018-10-09T15:27:44.139Z,75.40
2018-10-09T15:30:15.596Z,81.80
2018-10-09T15:32:47.486Z,82.00
2018-10-09T15:35:19.381Z,78.80
2018-10-09T15:37:51.260Z,80.20
2018-10-09T15:40:23.462Z,76.00
2018-10-09T15:42:55.321Z,78.40
2018-10-09T15:45:27.811Z,80.20
2018-10-09T15:47:59.699Z,79.80
2018-10-09T15:50:31.387Z,79.40
2018-10-09T15:53:03.268Z,81.60
2018-10-09T15:55:35.192Z,80.80
2018-10-09T15:58:07.003Z,81.60
2018-10-09T16:00:41.838Z,80.80
2018-10-09T16:03:25.655Z,83.20
2018-10-09T16:05:57.680Z,79.80
2018-10-09T16:08:30.356Z,79.20
2018-10-09T16:11:02.309Z,86.60
2018-10-09T16:13:33.942Z,83.60
2018-10-09T16:16:05.704Z,84.20
2018-10-09T16:18:37.765Z,77.60
2018-10-09T16:21:09.824Z,82.00
2018-10-09T16:23:41.718Z,85.60
2018-10-09T16:26:13.762Z,75.80
2018-10-09T16:28:47.712Z,84.60
2018-10-09T16:31:33.065Z,82.20
2018-10-09T16:34:04.951Z,80.40
2018-10-09T16:37:21.422Z,74.80
2018-10-09T16:39:53.908Z,76.60
2018-10-09T16:42:44.592Z,78.40
2018-10-09T16:45:16.662Z,80.80
2018-10-09T16:48:01.496Z,78.80
2018-10-09T16:50:33.238Z,84.40
2018-10-09T16:53:05.205Z,85.80
2018-10-09T16:56:50.888Z,80.80
2018-10-09T16:59:22.997Z,80.80
2018-10-09T17:01:55.057Z,82.40
2018-10-09T17:04:26.870Z,85.60
2018-10-09T17:07:26.824Z,81.80
2018-10-09T17:09:58.415Z,85.80
2018-10-09T17:12:30.272Z,84.00
2018-10-09T17:15:03.247Z,87.00
2018-10-09T17:17:34.883Z,82.60
2018-10-09T17:20:11.965Z,83.20
2018-10-09T17:22:49.308Z,83.40
2018-10-09T17:25:21.164Z,86.00
2018-10-09T17:27:52.919Z,86.40
2018-10-09T17:30:24.856Z,85.40
2018-10-09T17:32:56.434Z,97.20
2018-10-09T17:35:28.465Z,91.40
2018-10-09T17:38:00.249Z,91.20
2018-10-09T17:40:32.833Z,90.00
2018-10-09T17:43:04.807Z,90.00
2018-10-09T17:45:36.915Z,91.80
2018-10-09T17:48:10.436Z,92.20
2018-10-09T17:50:43.939Z,91.20
2018-10-09T17:53:16.038Z,92.00
2018-10-09T17:55:52.987Z,89.40
2018-10-09T17:58:37.050Z,91.80
2018-10-09T18:01:09.869Z,74.60
2018-10-09T18:03:41.874Z,79.80
2018-10-09T18:06:13.653Z,79.40
2018-10-09T18:08:58.787Z,84.80
2018-10-09T18:11:38.780Z,79.00
2018-10-09T18:14:10.982Z,81.00
2018-10-09T18:16:42.959Z,79.00
2018-10-09T18:19:14.881Z,79.00
2018-10-09T18:21:47.010Z,82.00
2018-10-09T18:24:19.073Z,83.60
2018-10-09T18:26:50.668Z,82.00
2018-10-09T18:29:22.486Z,83.20
2018-10-09T18:31:54.867Z,79.00
2018-10-09T18:34:27.114Z,80.60
2018-10-09T18:36:59.342Z,78.80
2018-10-09T18:39:31.267Z,77.60
2018-10-09T18:42:04.469Z,73.80
2018-10-09T18:44:37.003Z,69.20
2018-10-09T18:47:45.508Z,78.40
2018-10-09T18:50:17.629Z,77.80
2018-10-09T18:52:49.857Z,78.00
2018-10-09T18:55:21.962Z,77.40
2018-10-09T18:57:53.980Z,80.20
2018-10-09T19:00:26.169Z,78.60
2018-10-09T19:02:58.194Z,75.80
2018-10-09T19:05:31.351Z,76.20
2018-10-09T19:08:03.786Z,78.60
2018-10-09T19:10:36.170Z,78.40
2018-10-09T19:13:08.452Z,70.40
2018-10-09T19:15:40.617Z,76.40
2018-10-09T19:18:12.990Z,70.20
2018-10-09T19:20:45.039Z,78.80
2018-10-09T19:23:17.764Z,76.00
2018-10-09T19:25:49.819Z,76.60
2018-10-09T19:28:22.452Z,75.80
2018-10-09T19:30:54.246Z,76.40
2018-10-09T19:33:26.387Z,78.80
2018-10-09T19:35:58.409Z,79.20
2018-10-09T19:38:30.067Z,76.00
2018-10-09T19:41:02.109Z,75.80
2018-10-09T19:43:34.084Z,68.20
2018-10-09T19:46:06.866Z,75.80
2018-10-09T19:48:39.419Z,73.80
2018-10-09T19:51:11.593Z,76.60
2018-10-09T19:53:43.694Z,75.60
2018-10-09T19:56:15.312Z,78.00
2018-10-09T19:58:47.205Z,75.80
2018-10-09T20:01:19.618Z,72.20
2018-10-09T20:03:51.752Z,73.60
2018-10-09T20:06:23.969Z,69.20
2018-10-09T20:08:56.537Z,74.40
2018-10-09T20:11:28.627Z,80.20
2018-10-09T20:14:00.844Z,74.60
2018-10-09T20:16:32.507Z,75.00
2018-10-09T20:19:04.818Z,74.20
2018-10-09T20:21:37.653Z,74.20
2018-10-09T20:24:10.357Z,74.80
2018-10-09T20:26:42.210Z,74.20
2018-10-09T20:29:14.539Z,78.00
2018-10-09T20:31:46.321Z,72.00
2018-10-09T20:34:19.277Z,77.20
2018-10-09T20:36:50.825Z,77.20
2018-10-09T20:39:22.681Z,76.60
2018-10-09T20:41:54.680Z,78.00
2018-10-09T20:44:26.423Z,71.00
2018-10-09T20:46:58.889Z,79.00
2018-10-09T20:49:30.636Z,77.00
2018-10-09T20:52:02.661Z,82.80
2018-10-09T20:54:34.515Z,80.00
2018-10-09T20:57:06.542Z,82.60
2018-10-09T20:59:38.275Z,81.00
2018-10-09T21:02:09.879Z,80.40
2018-10-09T21:04:41.694Z,80.40
2018-10-09T21:07:13.674Z,86.00
2018-10-09T21:09:46.158Z,82.80
2018-10-09T21:12:18.121Z,86.40
2018-10-09T21:14:50.013Z,83.20
2018-10-09T21:17:22.043Z,85.20
2018-10-09T21:19:53.887Z,90.80
2018-10-09T21:22:25.670Z,86.40
2018-10-09T21:24:57.835Z,86.20
2018-10-09T21:27:29.863Z,88.00
2018-10-09T21:30:01.695Z,85.20
2018-10-09T21:32:33.635Z,90.00
2018-10-09T21:35:05.386Z,80.80
2018-10-09T21:37:37.037Z,87.60
2018-10-09T21:40:09.411Z,87.00
2018-10-09T21:42:41.288Z,89.80
2018-10-09T21:45:13.376Z,82.60
2018-10-09T21:52:37.933Z,77.80
2018-10-09T21:55:09.789Z,87.00
2018-10-09T21:57:41.955Z,88.60
2018-10-09T22:00:13.671Z,87.60
2018-10-09T22:02:45.599Z,89.00
2018-10-09T22:05:17.454Z,87.20
2018-10-09T22:07:49.666Z,90.00
2018-10-09T22:10:21.381Z,98.60
2018-10-09T22:12:53.159Z,86.40
2018-10-09T22:15:25.242Z,89.00
2018-10-09T22:17:57.174Z,85.20
2018-10-09T22:20:29.232Z,89.00
2018-10-09T22:23:01.029Z,90.40
2018-10-09T22:25:32.911Z,89.80
2018-10-09T22:28:04.554Z,93.80
2018-10-09T22:30:36.374Z,99.80
2018-10-09T22:33:08.726Z,101.00
2018-10-09T22:35:40.535Z,89.80
2018-10-09T22:38:12.378Z,94.60
2018-10-09T22:40:44.324Z,96.60
2018-10-09T22:43:16.320Z,90.80
2018-10-09T22:45:48.341Z,93.40
2018-10-09T22:48:20.223Z,95.80
2018-10-09T22:50:52.062Z,94.80
2018-10-09T22:53:24.938Z,95.60
2018-10-09T22:55:57.089Z,99.40
2018-10-09T22:58:29.183Z,93.20
2018-10-09T23:01:01.247Z,101.80
2018-10-09T23:03:33.225Z,105.20
2018-10-09T23:06:05.118Z,97.00
2018-10-09T23:08:37.147Z,88.80
2018-10-09T23:11:09.877Z,109.80
2018-10-09T23:13:41.962Z,104.80
2018-10-09T23:16:13.836Z,89.20
2018-10-09T23:18:45.708Z,99.20
2018-10-09T23:21:17.497Z,100.80
2018-10-09T23:23:49.481Z,100.40
2018-10-09T23:26:21.720Z,98.40
2018-10-09T23:28:53.736Z,101.80
2018-10-09T23:31:25.543Z,101.20
2018-10-09T23:33:58.964Z,104.60
2018-10-09T23:36:30.763Z,100.80
2018-10-09T23:39:02.769Z,94.00
2018-10-09T23:41:34.905Z,101.00
2018-10-09T23:44:06.850Z,98.80
2018-10-09T23:46:38.411Z,95.60
2018-10-09T23:49:10.402Z,94.00
2018-10-09T23:51:42.285Z,90.00
2018-10-09T23:54:15.471Z,97.20
2018-10-09T23:56:47.237Z,103.40
2018-10-09T23:59:19.347Z,100.80
